createdAt,value
2018-02-22T00:00:40.632Z,19.70
2018-02-22T00:01:40.556Z,19.30
2018-02-22T00:02:40.472Z,19.20
2018-02-22T00:03:40.386Z,20.20
2018-02-22T00:04:40.299Z,20.20
2018-02-22T00:05:40.214Z,20.60
2018-02-22T00:06:40.121Z,20.50
2018-02-22T00:07:40.061Z,20.00
2018-02-22T00:08:39.973Z,20.40
2018-02-22T00:09:39.882Z,20.20
2018-02-22T00:10:39.788Z,17.80
2018-02-22T00:11:39.694Z,20.40
2018-02-22T00:12:39.613Z,19.30
2018-02-22T00:13:39.548Z,20.50
2018-02-22T00:14:39.444Z,21.30
2018-02-22T00:15:39.369Z,19.60
2018-02-22T00:16:39.272Z,22.00
2018-02-22T00:17:39.196Z,19.50
2018-02-22T00:18:39.120Z,19.20
2018-02-22T00:19:39.019Z,22.70
2018-02-22T00:20:38.960Z,20.20
2018-02-22T00:21:38.856Z,18.50
2018-02-22T00:22:38.775Z,22.00
2018-02-22T00:23:38.690Z,19.20
2018-02-22T00:24:38.598Z,19.70
2018-02-22T00:25:38.516Z,21.00
2018-02-22T00:26:38.427Z,22.90
2018-02-22T00:27:38.358Z,19.70
2018-02-22T00:28:38.276Z,19.80
2018-02-22T00:29:38.175Z,20.10
2018-02-22T00:30:38.085Z,19.10
2018-02-22T00:31:38.011Z,20.10
2018-02-22T00:32:37.913Z,17.80
2018-02-22T00:33:37.849Z,20.90
2018-02-22T00:34:37.759Z,20.10
2018-02-22T00:35:37.660Z,18.70
2018-02-22T00:36:37.588Z,17.50
2018-02-22T00:37:37.491Z,19.20
2018-02-22T00:38:37.412Z,19.20
2018-02-22T00:39:37.329Z,19.90
2018-02-22T00:40:37.245Z,20.50
2018-02-22T00:41:37.150Z,19.70
2018-02-22T00:42:37.074Z,21.00
2018-02-22T00:43:37.000Z,19.50
2018-02-22T00:44:36.904Z,19.30
2018-02-22T00:45:36.818Z,21.70
2018-02-22T00:46:36.737Z,20.10
2018-02-22T00:47:36.658Z,20.40
2018-02-22T00:48:36.554Z,21.10
2018-02-22T00:49:36.485Z,19.30
2018-02-22T00:50:36.402Z,21.70
2018-02-22T00:51:36.302Z,21.50
2018-02-22T00:52:36.218Z,20.70
2018-02-22T00:53:36.136Z,21.60
2018-02-22T00:54:36.050Z,21.50
2018-02-22T00:55:35.982Z,20.70
2018-02-22T00:56:35.876Z,20.10
2018-02-22T00:57:35.799Z,20.70
2018-02-22T00:58:35.705Z,21.70
2018-02-22T00:59:35.637Z,20.30
2018-02-22T01:00:35.556Z,22.20
2018-02-22T01:01:35.453Z,20.90
2018-02-22T01:02:35.377Z,21.80
2018-02-22T01:03:35.288Z,21.80
2018-02-22T01:04:35.203Z,20.90
2018-02-22T01:05:35.115Z,20.40
2018-02-22T01:06:35.032Z,20.20
2018-02-22T01:07:34.939Z,19.50
2018-02-22T01:08:34.856Z,20.30
2018-02-22T01:09:34.780Z,20.00
2018-02-22T01:10:34.714Z,20.00
2018-02-22T01:11:34.613Z,20.50
2018-02-22T01:12:34.521Z,20.00
2018-02-22T01:13:34.435Z,20.00
2018-02-22T01:14:34.345Z,24.00
2018-02-22T01:15:34.255Z,19.60
2018-02-22T01:16:34.183Z,20.40
2018-02-22T01:17:34.109Z,19.60
2018-02-22T01:18:34.007Z,20.50
2018-02-22T01:19:33.919Z,20.20
2018-02-22T01:20:33.842Z,19.40
2018-02-22T01:21:33.751Z,18.60
2018-02-22T01:22:33.683Z,19.30
2018-02-22T01:23:33.579Z,19.50
2018-02-22T01:24:33.499Z,18.00
2018-02-22T01:25:33.415Z,19.20
2018-02-22T01:26:33.334Z,21.10
2018-02-22T01:27:33.256Z,18.70
2018-02-22T01:28:33.153Z,21.00
2018-02-22T01:29:33.065Z,17.90
2018-02-22T01:30:32.994Z,19.40
2018-02-22T01:31:32.920Z,18.50
2018-02-22T01:32:32.817Z,18.60
2018-02-22T01:33:32.742Z,16.20
2018-02-22T01:34:32.669Z,17.30
2018-02-22T01:35:32.555Z,18.40
2018-02-22T01:36:32.485Z,18.90
2018-02-22T01:37:32.403Z,17.40
2018-02-22T01:38:32.316Z,17.20
2018-02-22T01:39:32.238Z,18.40
2018-02-22T01:40:32.129Z,17.50
2018-02-22T01:41:32.055Z,17.70
2018-02-22T01:42:31.984Z,17.70
2018-02-22T01:43:31.887Z,17.20
2018-02-22T01:44:31.806Z,18.20
2018-02-22T01:45:31.724Z,18.90
2018-02-22T01:46:31.638Z,19.10
2018-02-22T01:47:31.550Z,17.10
2018-02-22T01:48:31.463Z,16.90
2018-02-22T01:49:31.386Z,18.60
2018-02-22T01:50:31.288Z,18.00
2018-02-22T01:51:31.212Z,18.20
2018-02-22T01:52:31.135Z,18.10
2018-02-22T01:53:31.035Z,18.80
2018-02-22T01:54:30.943Z,16.30
2018-02-22T01:55:30.863Z,17.30
2018-02-22T01:56:30.783Z,17.90
2018-02-22T01:57:30.697Z,19.00
2018-02-22T01:58:30.624Z,19.30
2018-02-22T01:59:30.530Z,17.50
2018-02-22T02:00:30.460Z,19.20
2018-02-22T02:01:30.360Z,19.00
2018-02-22T02:02:30.281Z,20.20
2018-02-22T02:03:30.186Z,18.50
2018-02-22T02:04:30.106Z,19.20
2018-02-22T02:05:30.031Z,17.40
2018-02-22T02:06:29.936Z,18.80
2018-02-22T02:07:29.846Z,17.90
2018-02-22T02:08:29.765Z,18.60
2018-02-22T02:09:29.688Z,17.10
2018-02-22T02:10:29.603Z,17.40
2018-02-22T02:11:29.510Z,18.60
2018-02-22T02:12:29.421Z,18.40
2018-02-22T02:13:29.346Z,17.90
2018-02-22T02:14:29.264Z,18.50
2018-02-22T02:15:29.191Z,19.20
2018-02-22T02:16:29.094Z,19.80
2018-02-22T02:17:29.017Z,21.90
2018-02-22T02:18:28.923Z,19.50
2018-02-22T02:19:28.846Z,20.20
2018-02-22T02:20:28.766Z,19.50
2018-02-22T02:21:28.668Z,17.10
2018-02-22T02:22:28.590Z,20.10
2018-02-22T02:23:28.501Z,19.50
2018-02-22T02:24:28.413Z,18.30
2018-02-22T02:25:28.326Z,19.60
2018-02-22T02:26:28.247Z,18.80
2018-02-22T02:27:28.167Z,19.40
2018-02-22T02:28:28.076Z,17.90
2018-02-22T02:29:27.988Z,20.10
2018-02-22T02:30:27.915Z,19.50
2018-02-22T02:31:27.822Z,16.60
2018-02-22T02:32:27.738Z,19.50
2018-02-22T02:33:27.656Z,18.10
2018-02-22T02:34:27.576Z,18.20
2018-02-22T02:35:27.544Z,18.00
2018-02-22T02:36:27.403Z,19.60
2018-02-22T02:37:27.312Z,19.70
2018-02-22T02:38:27.234Z,22.00
2018-02-22T02:39:27.159Z,17.90
2018-02-22T02:40:27.065Z,20.10
2018-02-22T02:41:26.990Z,18.70
2018-02-22T02:42:26.886Z,20.00
2018-02-22T02:43:26.825Z,20.60
2018-02-22T02:44:26.728Z,20.50
2018-02-22T02:45:26.638Z,20.40
2018-02-22T02:46:26.557Z,19.90
2018-02-22T02:47:26.486Z,21.00
2018-02-22T02:48:26.404Z,20.50
2018-02-22T02:49:26.317Z,20.90
2018-02-22T02:50:26.212Z,20.70
2018-02-22T02:51:26.142Z,19.60
2018-02-22T02:52:26.039Z,20.90
2018-02-22T02:53:25.962Z,20.10
2018-02-22T02:54:25.895Z,20.10
2018-02-22T02:55:25.791Z,20.20
2018-02-22T02:56:25.719Z,20.80
2018-02-22T02:57:25.627Z,21.60
2018-02-22T02:58:25.544Z,19.90
2018-02-22T02:59:25.455Z,18.60
2018-02-22T03:00:25.377Z,20.90
2018-02-22T03:01:25.279Z,20.00
2018-02-22T03:02:25.193Z,20.30
2018-02-22T03:03:25.116Z,20.60
2018-02-22T03:04:25.041Z,19.70
2018-02-22T03:05:24.944Z,19.10
2018-02-22T03:06:24.876Z,19.10
2018-02-22T03:07:24.770Z,21.60
2018-02-22T03:08:24.698Z,20.10
2018-02-22T03:09:24.616Z,21.10
2018-02-22T03:10:24.520Z,21.80
2018-02-22T03:11:24.442Z,22.00
2018-02-22T03:12:24.355Z,21.00
2018-02-22T03:13:24.268Z,19.60
2018-02-22T03:14:24.178Z,21.10
2018-02-22T03:15:24.096Z,20.30
2018-02-22T03:16:24.022Z,21.00
2018-02-22T03:17:23.917Z,20.20
2018-02-22T03:18:23.846Z,21.80
2018-02-22T03:19:23.778Z,20.40
2018-02-22T03:20:23.668Z,22.20
2018-02-22T03:21:23.596Z,21.40
2018-02-22T03:22:23.503Z,20.20
2018-02-22T03:23:23.434Z,19.70
2018-02-22T03:24:23.329Z,20.20
2018-02-22T03:25:23.240Z,21.40
2018-02-22T03:26:23.171Z,19.90
2018-02-22T03:27:23.074Z,21.50
2018-02-22T03:28:22.997Z,21.10
2018-02-22T03:29:22.912Z,20.50
2018-02-22T03:30:22.823Z,20.30
2018-02-22T03:31:22.748Z,19.50
2018-02-22T03:32:22.655Z,21.30
2018-02-22T03:33:22.565Z,21.70
2018-02-22T03:34:22.497Z,20.30
2018-02-22T03:35:22.393Z,20.90
2018-02-22T03:36:22.312Z,19.60
2018-02-22T03:37:22.225Z,20.00
2018-02-22T03:38:22.150Z,20.90
2018-02-22T03:39:22.073Z,19.80
2018-02-22T03:40:21.973Z,21.10
2018-02-22T03:41:21.903Z,20.40
2018-02-22T03:42:21.796Z,18.60
2018-02-22T03:43:21.722Z,20.20
2018-02-22T03:44:21.631Z,20.60
2018-02-22T03:45:21.586Z,21.10
2018-02-22T03:46:21.460Z,20.00
2018-02-22T03:47:21.376Z,21.30
2018-02-22T03:48:21.298Z,21.40
2018-02-22T03:49:21.214Z,22.10
2018-02-22T03:50:21.131Z,21.80
2018-02-22T03:51:21.037Z,20.80
2018-02-22T03:52:20.956Z,19.70
2018-02-22T03:53:20.870Z,23.50
2018-02-22T03:54:20.798Z,19.30
2018-02-22T03:55:20.708Z,20.10
2018-02-22T03:56:20.623Z,19.20
2018-02-22T03:57:20.540Z,21.10
2018-02-22T03:58:20.448Z,20.50
2018-02-22T03:59:20.368Z,24.60
2018-02-22T04:00:20.272Z,21.90
2018-02-22T04:01:20.201Z,20.70
2018-02-22T04:02:20.107Z,22.30
2018-02-22T04:03:20.023Z,22.30
2018-02-22T04:04:19.950Z,21.50
2018-02-22T04:05:19.849Z,22.20
2018-02-22T04:06:19.763Z,22.30
2018-02-22T04:07:19.676Z,21.10
2018-02-22T04:08:19.604Z,22.40
2018-02-22T04:09:19.515Z,21.40
2018-02-22T04:10:19.433Z,22.50
2018-02-22T04:11:19.336Z,25.60
2018-02-22T04:12:19.257Z,23.00
2018-02-22T04:13:19.179Z,20.80
2018-02-22T04:14:19.104Z,23.80
2018-02-22T04:15:19.000Z,20.50
2018-02-22T04:16:18.929Z,22.80
2018-02-22T04:17:18.829Z,23.70
2018-02-22T04:18:18.794Z,22.80
2018-02-22T04:19:18.662Z,23.00
2018-02-22T04:20:18.582Z,21.60
2018-02-22T04:21:18.503Z,21.10
2018-02-22T04:22:18.399Z,23.30
2018-02-22T04:23:18.316Z,21.80
2018-02-22T04:24:18.235Z,22.50
2018-02-22T04:25:18.160Z,23.60
2018-02-22T04:26:18.079Z,23.10
2018-02-22T04:27:17.984Z,21.80
2018-02-22T04:28:17.903Z,24.00
2018-02-22T04:29:17.815Z,23.00
2018-02-22T04:30:17.725Z,22.70
2018-02-22T04:31:17.653Z,23.10
2018-02-22T04:32:17.555Z,21.40
2018-02-22T04:33:17.470Z,22.00
2018-02-22T04:34:17.380Z,21.80
2018-02-22T04:35:17.316Z,23.60
2018-02-22T04:36:17.230Z,23.10
2018-02-22T04:37:17.131Z,24.30
2018-02-22T04:38:17.036Z,23.20
2018-02-22T04:39:16.955Z,23.00
2018-02-22T04:40:16.871Z,22.10
2018-02-22T04:41:16.785Z,23.30
2018-02-22T04:42:16.706Z,22.50
2018-02-22T04:43:16.624Z,23.80
2018-02-22T04:44:16.529Z,23.70
2018-02-22T04:45:16.441Z,22.10
2018-02-22T04:46:16.362Z,26.40
2018-02-22T04:47:16.280Z,22.60
2018-02-22T04:48:16.190Z,23.80
2018-02-22T04:49:16.101Z,25.20
2018-02-22T04:50:16.024Z,22.20
2018-02-22T04:51:15.928Z,25.90
2018-02-22T04:52:15.843Z,23.20
2018-02-22T04:53:15.756Z,24.80
2018-02-22T04:54:15.733Z,24.60
2018-02-22T04:55:15.595Z,24.00
2018-02-22T04:56:15.503Z,24.60
2018-02-22T04:57:15.416Z,23.20
2018-02-22T04:58:15.333Z,26.30
2018-02-22T04:59:15.260Z,24.60
2018-02-22T05:00:15.159Z,24.30
2018-02-22T05:01:15.090Z,25.10
2018-02-22T05:02:14.993Z,24.50
2018-02-22T05:03:14.906Z,24.80
2018-02-22T05:04:14.830Z,25.80
2018-02-22T05:05:14.728Z,23.20
2018-02-22T05:06:14.651Z,27.00
2018-02-22T05:07:14.557Z,26.60
2018-02-22T05:08:14.487Z,24.50
2018-02-22T05:09:14.398Z,27.40
2018-02-22T05:10:14.304Z,26.30
2018-02-22T05:11:14.220Z,25.10
2018-02-22T05:12:14.129Z,24.60
2018-02-22T05:13:14.052Z,28.30
2018-02-22T05:14:13.981Z,24.90
2018-02-22T05:15:13.891Z,26.20
2018-02-22T05:16:13.806Z,26.20
2018-02-22T05:17:13.721Z,27.10
2018-02-22T05:18:13.628Z,25.70
2018-02-22T05:19:13.535Z,25.30
2018-02-22T05:20:13.455Z,26.10
2018-02-22T05:21:13.360Z,25.90
2018-02-22T05:22:13.285Z,27.30
2018-02-22T05:23:13.212Z,25.70
2018-02-22T05:24:13.109Z,28.60
2018-02-22T05:25:13.021Z,27.70
2018-02-22T05:26:12.929Z,26.20
2018-02-22T05:27:12.860Z,26.40
2018-02-22T05:28:12.757Z,28.60
2018-02-22T05:29:12.682Z,26.60
2018-02-22T05:30:12.603Z,25.90
2018-02-22T05:31:12.512Z,23.90
2018-02-22T05:32:12.424Z,24.10
2018-02-22T05:33:12.335Z,27.80
2018-02-22T05:34:12.283Z,26.60
2018-02-22T05:35:12.159Z,28.80
2018-02-22T05:36:12.068Z,28.40
2018-02-22T05:37:12.000Z,28.60
2018-02-22T05:38:11.910Z,28.20
2018-02-22T05:39:11.821Z,26.10
2018-02-22T05:40:11.738Z,28.20
2018-02-22T05:41:11.658Z,26.70
2018-02-22T05:42:11.558Z,26.70
2018-02-22T05:43:11.475Z,26.30
2018-02-22T05:44:11.382Z,27.60
2018-02-22T05:45:11.322Z,27.00
2018-02-22T05:46:11.235Z,26.80
2018-02-22T05:47:11.140Z,25.20
2018-02-22T05:48:11.045Z,27.50
2018-02-22T05:49:10.956Z,30.20
2018-02-22T05:50:10.875Z,28.20
2018-02-22T05:51:10.784Z,27.50
2018-02-22T05:52:10.713Z,31.00
2018-02-22T05:53:10.615Z,24.90
2018-02-22T05:54:10.539Z,27.40
2018-02-22T05:55:10.462Z,28.00
2018-02-22T05:56:10.371Z,27.50
2018-02-22T05:57:10.270Z,29.50
2018-02-22T05:58:10.187Z,26.70
2018-02-22T05:59:10.100Z,28.60
2018-02-22T06:00:10.015Z,27.00
2018-02-22T06:01:09.928Z,27.50
2018-02-22T06:02:09.843Z,28.00
2018-02-22T06:03:09.764Z,28.90
2018-02-22T06:04:09.674Z,26.30
2018-02-22T06:05:09.586Z,26.90
2018-02-22T06:06:09.508Z,27.60
2018-02-22T06:07:09.420Z,28.40
2018-02-22T06:08:09.326Z,26.80
2018-02-22T06:09:09.249Z,24.80
2018-02-22T06:10:09.172Z,30.40
2018-02-22T06:11:09.079Z,27.30
2018-02-22T06:12:08.986Z,27.90
2018-02-22T06:13:08.900Z,27.10
2018-02-22T06:14:08.819Z,28.70
2018-02-22T06:15:08.734Z,29.50
2018-02-22T06:16:08.640Z,30.90
2018-02-22T06:17:08.564Z,29.70
2018-02-22T06:18:08.476Z,28.20
2018-02-22T06:19:08.388Z,30.30
2018-02-22T06:20:08.299Z,32.30
2018-02-22T06:21:08.209Z,27.20
2018-02-22T06:22:08.129Z,28.80
2018-02-22T06:23:08.040Z,27.90
2018-02-22T06:24:07.967Z,27.40
2018-02-22T06:25:07.866Z,30.50
2018-02-22T06:26:07.786Z,29.40
2018-02-22T06:27:07.705Z,28.80
2018-02-22T06:28:07.615Z,26.90
2018-02-22T06:29:07.524Z,28.00
2018-02-22T06:30:07.451Z,29.20
2018-02-22T06:31:07.365Z,27.50
2018-02-22T06:32:07.268Z,27.60
2018-02-22T06:33:07.196Z,30.70
2018-02-22T06:34:07.089Z,26.70
2018-02-22T06:35:07.024Z,28.70
2018-02-22T06:36:06.919Z,30.40
2018-02-22T06:37:06.844Z,27.20
2018-02-22T06:38:06.759Z,30.00
2018-02-22T06:39:06.663Z,28.60
2018-02-22T06:40:06.592Z,29.00
2018-02-22T06:41:06.492Z,29.60
2018-02-22T06:42:06.420Z,27.70
2018-02-22T06:43:06.329Z,26.90
2018-02-22T06:44:06.246Z,27.90
2018-02-22T06:45:06.154Z,28.50
2018-02-22T06:46:06.072Z,30.30
2018-02-22T06:47:05.990Z,29.30
2018-02-22T06:48:05.893Z,29.50
2018-02-22T06:49:05.806Z,31.20
2018-02-22T06:50:05.722Z,28.20
2018-02-22T06:51:05.649Z,30.00
2018-02-22T06:52:05.565Z,28.60
2018-02-22T06:53:05.466Z,27.40
2018-02-22T06:54:05.389Z,25.40
2018-02-22T06:55:05.299Z,27.50
2018-02-22T06:56:05.208Z,29.60
2018-02-22T06:57:05.119Z,28.30
2018-02-22T06:58:05.036Z,26.70
2018-02-22T06:59:04.960Z,28.70
2018-02-22T07:00:04.867Z,29.90
2018-02-22T07:01:04.792Z,27.00
2018-02-22T07:02:04.696Z,28.60
2018-02-22T07:03:04.604Z,29.20
2018-02-22T07:04:04.529Z,28.10
2018-02-22T07:05:04.444Z,28.30
2018-02-22T07:06:04.361Z,28.60
2018-02-22T07:07:04.269Z,31.30
2018-02-22T07:08:04.182Z,27.60
2018-02-22T07:09:04.092Z,30.30
2018-02-22T07:10:04.015Z,30.00
2018-02-22T07:11:03.919Z,31.90
2018-02-22T07:12:03.848Z,27.80
2018-02-22T07:13:03.762Z,27.40
2018-02-22T07:14:03.668Z,28.00
2018-02-22T07:15:03.585Z,28.10
2018-02-22T07:16:03.492Z,28.80
2018-02-22T07:17:03.411Z,29.50
2018-02-22T07:18:03.341Z,26.20
2018-02-22T07:19:03.249Z,31.80
2018-02-22T07:20:03.169Z,28.50
2018-02-22T07:21:03.078Z,30.70
2018-02-22T07:22:02.990Z,31.00
2018-02-22T07:23:02.913Z,29.40
2018-02-22T07:24:02.824Z,29.70
2018-02-22T07:25:02.762Z,27.90
2018-02-22T07:26:02.653Z,29.70
2018-02-22T07:27:02.555Z,32.00
2018-02-22T07:28:02.482Z,29.70
2018-02-22T07:29:02.397Z,30.00
2018-02-22T07:30:02.316Z,30.40
2018-02-22T07:31:02.232Z,27.70
2018-02-22T07:32:02.147Z,30.70
2018-02-22T07:33:02.047Z,30.20
2018-02-22T07:34:01.976Z,28.10
2018-02-22T07:35:01.897Z,28.60
2018-02-22T07:36:01.798Z,31.60
2018-02-22T07:37:01.718Z,29.50
2018-02-22T07:38:01.619Z,31.60
2018-02-22T07:39:01.568Z,34.50
2018-02-22T07:40:01.458Z,29.80
2018-02-22T07:41:01.396Z,27.70
2018-02-22T07:42:01.298Z,27.70
2018-02-22T07:43:01.209Z,30.30
2018-02-22T07:44:01.272Z,30.30
2018-02-22T07:45:01.095Z,29.40
2018-02-22T07:46:01.043Z,29.20
2018-02-22T07:47:00.875Z,30.70
2018-02-22T07:48:00.786Z,31.20
2018-02-22T07:49:00.695Z,30.70
2018-02-22T07:50:00.613Z,30.10
2018-02-22T07:51:00.553Z,31.90
2018-02-22T07:52:00.451Z,28.40
2018-02-22T07:53:00.387Z,27.30
2018-02-22T07:54:00.278Z,27.60
2018-02-22T07:55:00.199Z,29.70
2018-02-22T07:56:00.121Z,30.30
2018-02-22T07:57:00.036Z,30.00
2018-02-22T07:57:59.953Z,28.90
2018-02-22T07:58:59.864Z,29.60
2018-02-22T07:59:59.832Z,29.90
2018-02-22T08:00:59.703Z,30.90
2018-02-22T08:01:59.634Z,30.70
2018-02-22T08:02:59.533Z,31.10
2018-02-22T08:03:59.454Z,28.80
2018-02-22T08:04:59.356Z,29.10
2018-02-22T08:05:59.275Z,29.70
2018-02-22T08:06:59.202Z,31.00
2018-02-22T08:07:59.106Z,28.00
2018-02-22T08:08:59.024Z,31.20
2018-02-22T08:09:58.949Z,29.00
2018-02-22T08:10:58.848Z,30.50
2018-02-22T08:11:58.777Z,30.20
2018-02-22T08:12:58.691Z,31.00
2018-02-22T08:13:58.607Z,30.90
2018-02-22T08:14:58.788Z,30.70
2018-02-22T08:15:58.537Z,29.10
2018-02-22T08:16:58.352Z,29.40
2018-02-22T08:17:58.268Z,27.10
2018-02-22T08:18:58.180Z,27.90
2018-02-22T08:19:58.115Z,29.30
2018-02-22T08:20:58.028Z,32.10
2018-02-22T08:21:57.924Z,26.50
2018-02-22T08:22:57.847Z,29.10
2018-02-22T08:23:57.761Z,27.90
2018-02-22T08:24:57.684Z,29.50
2018-02-22T08:25:57.599Z,29.00
2018-02-22T08:26:57.511Z,30.10
2018-02-22T08:27:57.434Z,29.00
2018-02-22T08:28:57.364Z,27.70
2018-02-22T08:29:57.266Z,30.00
2018-02-22T08:30:57.189Z,27.10
2018-02-22T08:31:57.111Z,27.10
2018-02-22T08:32:57.004Z,24.60
2018-02-22T08:33:56.932Z,29.40
2018-02-22T08:34:56.854Z,28.70
2018-02-22T08:35:56.756Z,28.00
2018-02-22T08:36:56.685Z,29.00
2018-02-22T08:37:56.599Z,28.90
2018-02-22T08:38:56.561Z,29.40
2018-02-22T08:39:56.428Z,27.70
2018-02-22T08:40:56.361Z,26.80
2018-02-22T08:41:56.260Z,26.90
2018-02-22T08:42:56.177Z,25.20
2018-02-22T08:43:56.113Z,24.00
2018-02-22T08:44:56.007Z,25.40
2018-02-22T08:45:55.927Z,23.30
2018-02-22T08:46:55.847Z,25.30
2018-02-22T08:47:55.787Z,23.40
2018-02-22T08:48:55.683Z,25.20
2018-02-22T08:49:55.610Z,24.10
2018-02-22T08:50:55.530Z,22.50
2018-02-22T08:51:55.444Z,23.60
2018-02-22T08:52:55.365Z,24.50
2018-02-22T08:53:55.273Z,24.30
2018-02-22T08:54:55.216Z,24.60
2018-02-22T08:55:55.118Z,21.80
2018-02-22T08:56:55.549Z,21.80
2018-02-22T08:57:54.977Z,21.00
2018-02-22T08:58:54.905Z,22.00
2018-02-22T08:59:54.831Z,22.00
2018-02-22T09:00:54.763Z,23.90
2018-02-22T09:01:54.653Z,25.30
2018-02-22T09:02:54.551Z,22.60
2018-02-22T09:03:54.611Z,23.20
2018-02-22T09:04:54.375Z,21.60
2018-02-22T09:05:54.310Z,28.30
2018-02-22T09:06:54.207Z,23.20
2018-02-22T09:07:54.141Z,25.20
2018-02-22T09:08:54.058Z,23.40
2018-02-22T09:09:53.986Z,24.90
2018-02-22T09:10:53.923Z,24.50
2018-02-22T09:11:53.812Z,27.10
2018-02-22T09:12:53.727Z,24.60
2018-02-22T09:13:53.679Z,25.00
2018-02-22T09:14:53.564Z,26.00
2018-02-22T09:15:53.487Z,26.40
2018-02-22T09:16:53.420Z,25.30
2018-02-22T09:17:53.323Z,24.00
2018-02-22T09:18:53.247Z,31.20
2018-02-22T09:19:53.154Z,23.40
2018-02-22T09:20:53.078Z,24.80
2018-02-22T09:21:53.010Z,24.40
2018-02-22T09:22:52.908Z,23.70
2018-02-22T09:23:52.843Z,23.00
2018-02-22T09:24:52.767Z,25.90
2018-02-22T09:25:52.684Z,22.40
2018-02-22T09:26:52.588Z,22.10
2018-02-22T09:27:52.507Z,21.10
2018-02-22T09:28:52.437Z,24.10
2018-02-22T09:29:52.381Z,20.50
2018-02-22T09:30:52.278Z,23.40
2018-02-22T09:31:52.187Z,20.40
2018-02-22T09:32:52.120Z,19.50
2018-02-22T09:33:52.043Z,18.40
2018-02-22T09:34:51.964Z,20.20
2018-02-22T09:35:51.860Z,18.20
2018-02-22T09:36:51.793Z,18.80
2018-02-22T09:37:51.716Z,20.30
2018-02-22T09:38:51.622Z,19.90
2018-02-22T09:39:51.551Z,18.70
2018-02-22T09:40:51.462Z,20.20
2018-02-22T09:41:51.383Z,21.70
2018-02-22T09:42:51.322Z,20.30
2018-02-22T09:43:51.235Z,21.00
2018-02-22T09:44:51.137Z,20.30
2018-02-22T09:45:51.069Z,18.80
2018-02-22T09:46:50.981Z,18.70
2018-02-22T09:47:50.920Z,17.90
2018-02-22T09:48:50.816Z,14.70
2018-02-22T09:49:50.735Z,15.00
2018-02-22T09:50:50.658Z,14.60
2018-02-22T09:51:50.577Z,13.30
2018-02-22T09:52:50.498Z,14.30
2018-02-22T09:53:50.413Z,16.50
2018-02-22T09:54:50.325Z,16.10
2018-02-22T09:55:50.255Z,17.70
2018-02-22T09:56:50.170Z,15.80
2018-02-22T09:57:50.088Z,13.70
2018-02-22T09:58:50.004Z,15.50
2018-02-22T09:59:49.925Z,14.20
2018-02-22T10:00:49.835Z,16.40
2018-02-22T10:01:49.773Z,15.80
2018-02-22T10:02:49.690Z,15.70
2018-02-22T10:03:49.587Z,15.90
2018-02-22T10:04:49.514Z,14.00
2018-02-22T10:05:49.428Z,15.30
2018-02-22T10:06:49.356Z,16.80
2018-02-22T10:07:49.273Z,13.30
2018-02-22T10:08:49.193Z,12.80
2018-02-22T10:09:49.108Z,10.40
2018-02-22T10:10:49.029Z,11.20
2018-02-22T10:11:48.937Z,14.10
2018-02-22T10:12:48.863Z,12.30
2018-02-22T10:13:48.786Z,14.40
2018-02-22T10:14:48.689Z,13.60
2018-02-22T10:15:48.618Z,13.90
2018-02-22T10:16:48.531Z,16.30
2018-02-22T10:17:48.460Z,16.00
2018-02-22T10:18:48.367Z,8.80
2018-02-22T10:19:48.288Z,10.40
2018-02-22T10:20:48.219Z,10.40
2018-02-22T10:21:48.127Z,10.50
2018-02-22T10:22:48.050Z,10.50
2018-02-22T10:23:47.967Z,9.00
2018-02-22T10:24:47.881Z,10.40
2018-02-22T10:25:47.788Z,9.80
2018-02-22T10:26:47.712Z,10.70
2018-02-22T10:27:47.628Z,12.40
2018-02-22T10:28:47.539Z,10.40
2018-02-22T10:29:47.470Z,12.40
2018-02-22T10:30:47.376Z,11.00
2018-02-22T10:31:47.294Z,10.50
2018-02-22T10:32:47.218Z,9.60
2018-02-22T10:33:47.139Z,12.30
2018-02-22T10:34:47.064Z,11.10
2018-02-22T10:35:46.986Z,11.60
2018-02-22T10:36:46.896Z,11.30
2018-02-22T10:37:46.828Z,13.70
2018-02-22T10:38:46.731Z,13.20
2018-02-22T10:39:46.646Z,12.10
2018-02-22T10:40:46.572Z,10.90
2018-02-22T10:41:46.484Z,11.00
2018-02-22T10:42:46.421Z,11.70
2018-02-22T10:43:46.323Z,11.30
2018-02-22T10:44:46.263Z,12.00
2018-02-22T10:45:46.168Z,13.50
2018-02-22T10:46:46.081Z,12.00
2018-02-22T10:47:45.997Z,10.20
2018-02-22T10:48:45.923Z,11.30
2018-02-22T10:49:45.835Z,10.10
2018-02-22T10:50:45.772Z,13.10
2018-02-22T10:51:45.667Z,11.90
2018-02-22T10:52:45.593Z,10.50
2018-02-22T10:53:45.522Z,12.00
2018-02-22T10:54:45.430Z,9.60
2018-02-22T10:55:45.346Z,9.80
2018-02-22T10:56:45.271Z,9.30
2018-02-22T10:57:45.191Z,12.20
2018-02-22T10:58:45.132Z,10.40
2018-02-22T10:59:45.018Z,10.90
2018-02-22T11:00:44.950Z,12.00
2018-02-22T11:01:44.865Z,10.80
2018-02-22T11:02:44.780Z,12.40
2018-02-22T11:03:44.705Z,10.90
2018-02-22T11:04:44.627Z,11.50
2018-02-22T11:05:44.531Z,13.20
2018-02-22T11:06:44.479Z,11.80
2018-02-22T11:07:44.372Z,11.80
2018-02-22T11:08:44.305Z,11.40
2018-02-22T11:09:44.228Z,12.60
2018-02-22T11:10:44.130Z,11.10
2018-02-22T11:11:44.073Z,9.60
2018-02-22T11:12:43.978Z,10.00
2018-02-22T11:13:43.896Z,9.60
2018-02-22T11:14:43.824Z,8.50
2018-02-22T11:15:43.733Z,10.40
2018-02-22T11:16:43.649Z,8.70
2018-02-22T11:17:43.574Z,10.30
2018-02-22T11:18:43.504Z,7.70
2018-02-22T11:19:43.429Z,9.00
2018-02-22T11:20:43.337Z,8.30
2018-02-22T11:21:43.244Z,9.30
2018-02-22T11:22:43.173Z,9.00
2018-02-22T11:23:43.112Z,8.70
2018-02-22T11:24:43.012Z,8.50
2018-02-22T11:25:42.946Z,8.60
2018-02-22T11:26:42.848Z,9.10
2018-02-22T11:27:42.776Z,9.50
2018-02-22T11:28:42.708Z,10.20
2018-02-22T11:29:42.615Z,9.40
2018-02-22T11:30:42.539Z,9.40
2018-02-22T11:31:42.454Z,10.90
2018-02-22T11:32:42.375Z,10.50
2018-02-22T11:33:42.301Z,9.50
2018-02-22T11:34:42.222Z,8.40
2018-02-22T11:35:42.145Z,10.20
2018-02-22T11:36:42.072Z,8.60
2018-02-22T11:37:42.000Z,8.70
2018-02-22T11:38:41.909Z,10.30
2018-02-22T11:39:41.811Z,9.10
2018-02-22T11:40:41.748Z,8.00
2018-02-22T11:41:41.669Z,7.20
2018-02-22T11:42:41.586Z,6.20
2018-02-22T11:43:41.507Z,6.60
2018-02-22T11:44:41.436Z,8.10
2018-02-22T11:45:41.353Z,8.20
2018-02-22T11:46:41.281Z,9.80
2018-02-22T11:47:41.198Z,9.60
2018-02-22T11:48:41.117Z,8.20
2018-02-22T11:49:41.031Z,8.00
2018-02-22T11:50:40.951Z,9.30
2018-02-22T11:51:40.882Z,7.30
2018-02-22T11:52:40.802Z,7.50
2018-02-22T11:53:40.737Z,8.50
2018-02-22T11:54:40.649Z,8.80
2018-02-22T11:55:40.557Z,8.50
2018-02-22T11:56:40.474Z,9.20
2018-02-22T11:57:40.402Z,8.10
2018-02-22T11:58:40.330Z,9.70
2018-02-22T11:59:40.261Z,8.90
2018-02-22T12:00:40.178Z,7.60
2018-02-22T12:01:40.236Z,9.20
2018-02-22T12:02:40.025Z,8.10
2018-02-22T12:03:39.926Z,8.40
2018-02-22T12:04:39.850Z,6.60
2018-02-22T12:05:39.780Z,8.30
2018-02-22T12:06:39.696Z,7.50
2018-02-22T12:07:39.619Z,7.60
2018-02-22T12:08:39.530Z,8.30
2018-02-22T12:09:39.458Z,8.00
2018-02-22T12:10:39.380Z,7.40
2018-02-22T12:11:39.305Z,10.00
2018-02-22T12:12:39.222Z,9.90
2018-02-22T12:13:39.133Z,9.00
2018-02-22T12:14:39.054Z,10.10
2018-02-22T12:15:38.982Z,9.90
2018-02-22T12:16:38.909Z,10.60
2018-02-22T12:17:38.818Z,7.90
2018-02-22T12:18:38.729Z,8.80
2018-02-22T12:19:38.656Z,9.00
2018-02-22T12:20:38.590Z,6.50
2018-02-22T12:21:38.507Z,7.50
2018-02-22T12:22:38.431Z,9.20
2018-02-22T12:23:38.334Z,8.40
2018-02-22T12:24:38.251Z,8.60
2018-02-22T12:25:38.181Z,8.70
2018-02-22T12:26:38.109Z,8.30
2018-02-22T12:27:38.018Z,8.10
2018-02-22T12:28:37.949Z,9.10
2018-02-22T12:29:37.862Z,7.30
2018-02-22T12:30:37.787Z,8.80
2018-02-22T12:31:37.704Z,9.00
2018-02-22T12:32:37.622Z,8.40
2018-02-22T12:33:37.534Z,10.00
2018-02-22T12:34:37.462Z,9.00
2018-02-22T12:35:37.372Z,9.80
2018-02-22T12:36:37.315Z,8.50
2018-02-22T12:37:37.204Z,8.90
2018-02-22T12:38:37.132Z,10.00
2018-02-22T12:39:37.055Z,9.40
2018-02-22T12:40:36.967Z,10.20
2018-02-22T12:41:36.887Z,9.60
2018-02-22T12:42:36.805Z,9.10
2018-02-22T12:43:36.734Z,10.70
2018-02-22T12:44:36.666Z,10.20
2018-02-22T12:45:36.569Z,9.20
2018-02-22T12:46:36.489Z,10.90
2018-02-22T12:47:36.412Z,10.40
2018-02-22T12:48:36.317Z,10.30
2018-02-22T12:49:36.266Z,9.30
2018-02-22T12:50:36.162Z,9.30
2018-02-22T12:51:36.085Z,9.30
2018-02-22T12:52:36.006Z,8.40
2018-02-22T12:53:35.932Z,10.10
2018-02-22T12:54:35.841Z,10.30